首页
METAR-TAF:

METAR-TAF

机场 :

伏尔加格勒, 俄罗斯

纬度: 48-47N, 经度: 044-22E, 海拔: 145米

当前天气观测

该预报发布于20分钟前的02:00 UTC
风速10节,风向
温度 22°C
湿度 46%
气压 1013 hPa
能见度10公里或以上
1500米以下无云,无积雨云

METAR: URWW 230200Z 09005MPS CAVOK 22/10 Q1013 R06/010070 NOSIG

时间: 05:20 (02:20 UTC)

预报

该预报发布于3小时和21分钟前的22:59 UTC
预报有效从23日的 00点(UTC)到 23日的 09点(UTC)
风速6节,风向,有时为16节阵风
能见度10公里或以上
1500米以下无云,无积雨云
短暂存在
从 23日的 00点(UTC)到 23日的 09点(UTC)
风速12节,风向东南,有时为21节阵风

TAF: URWW 222259Z 2300/2309 10003G08MPS CAVOK TEMPO 2300/2309 13006G11MPS

超过4000个机场的气象观测和天气预报(METAR&TAF报告)。

可查询的气象台以黄色和红色小点在地图上表示。

将鼠标移到小点上方,可查看气象台名称。

然后点击查看天气观测和预报。

如需切换地图:点击带黑十字的绿色按钮放大地图;点击带横线的绿色按钮缩小地图;或者点击绿色箭头查看邻近地区的地图。


METAR-TAF: